Wetterstation Vordersexau
Wetterdaten: Woche 29.10.12 - 04.11.12 (KW44)
Datum Zeit Temp. A. Feuchte A. Luftdruck Regen Wind Richtung Taupunkt Windchill Windben
29.10.2012 00:00 -1,5 C 86 % 1014,6 hPa 0,0 l/m 0,0 km/h O-SO -3,5 C -1,5 C 0,0 km/h
29.10.2012 01:00 -1,9 C 86 % 1015,0 hPa 0,0 l/m 0,0 km/h O-SO -3,9 C -1,9 C 0,0 km/h
29.10.2012 02:00 -2,1 C 85 % 1015,1 hPa 0,0 l/m 0,0 km/h S-SO -4,3 C -2,1 C 0,0 km/h
29.10.2012 03:00 -3,6 C 86 % 1015,4 hPa 0,0 l/m 0,0 km/h S-SO -5,6 C -3,6 C 0,0 km/h
29.10.2012 04:00 -3,8 C 86 % 1015,0 hPa 0,0 l/m 0,0 km/h S-SO -5,8 C -3,8 C 0,0 km/h
29.10.2012 05:00 -4,9 C 87 % 1015,1 hPa 0,0 l/m 0,0 km/h S-SO -6,7 C -4,9 C 0,0 km/h
29.10.2012 06:00 -5,1 C 87 % 1015,1 hPa 0,0 l/m 0,0 km/h S-SO -6,9 C -5,1 C 0,0 km/h
29.10.2012 07:00 -5,7 C 86 % 1015,5 hPa 0,0 l/m 0,0 km/h N -7,7 C -5,7 C 0,0 km/h
29.10.2012 08:00 -2,9 C 84 % 1015,8 hPa 0,0 l/m 0,0 km/h W-SW -5,2 C -2,9 C 0,0 km/h
29.10.2012 09:00 5,3 C 86 % 1015,9 hPa 0,0 l/m 0,0 km/h W-NW 3,2 C 5,3 C 0,0 km/h
29.10.2012 10:00 7,5 C 75 % 1015,9 hPa 0,0 l/m 0,0 km/h W-SW 3,4 C 7,5 C 0,0 km/h
29.10.2012 11:00 8,1 C 69 % 1015,5 hPa 0,0 l/m 0,0 km/h N-NW 2,8 C 8,1 C 0,0 km/h
29.10.2012 12:00 7,8 C 68 % 1015,1 hPa 0,0 l/m 9,7 km/h W-NW 2,3 C 5,4 C 5,4 km/h
29.10.2012 13:00 9,0 C 65 % 1014,5 hPa 0,0 l/m 0,6 km/h S-SO 2,8 C 9,0 C 0,4 km/h
29.10.2012 14:00 9,9 C 62 % 1013,7 hPa 0,0 l/m 3,2 km/h S 3,0 C 9,9 C 1,8 km/h
29.10.2012 15:00 11,3 C 56 % 1013,1 hPa 0,0 l/m 11,7 km/h S-SO 2,8 C 8,2 C 6,5 km/h
29.10.2012 16:00 6,4 C 68 % 1012,8 hPa 0,0 l/m 0,0 km/h S-SO 0,9 C 6,4 C 0,0 km/h
29.10.2012 17:00 3,2 C 78 % 1012,6 hPa 0,0 l/m 1,3 km/h S-SO -0,3 C 3,2 C 0,7 km/h
29.10.2012 18:00 2,2 C 83 % 1012,7 hPa 0,0 l/m 1,9 km/h SO -0,4 C 2,2 C 1,1 km/h
29.10.2012 19:00 2,5 C 84 % 1012,3 hPa 0,0 l/m 0,0 km/h S-SO 0,1 C 2,5 C 0,0 km/h
29.10.2012 20:00 2,3 C 84 % 1012,3 hPa 0,0 l/m 0,6 km/h SO -0,1 C 2,3 C 0,4 km/h
29.10.2012 21:00 2,4 C 84 % 1012,3 hPa 0,0 l/m 0,0 km/h SO -0,0 C 2,4 C 0,0 km/h
29.10.2012 22:00 1,9 C 83 % 1011,9 hPa 0,0 l/m 0,0 km/h O-SO -0,7 C 1,9 C 0,0 km/h
29.10.2012 23:00 1,8 C 84 % 1011,2 hPa 0,0 l/m 0,0 km/h SO -0,6 C 1,8 C 0,0 km/h
30.10.2012 00:00 0,5 C 85 % 1010,7 hPa 0,0 l/m 0,0 km/h SO -1,7 C 0,5 C 0,0 km/h
30.10.2012 01:00 0,2 C 86 % 1010,0 hPa 0,0 l/m 0,0 km/h S-SO -1,9 C 0,2 C 0,0 km/h
30.10.2012 02:00 0,5 C 86 % 1009,7 hPa 0,0 l/m 0,0 km/h S-SO -1,6 C 0,5 C 0,0 km/h
30.10.2012 03:00 1,4 C 86 % 1008,6 hPa 0,0 l/m 0,0 km/h S-SO -0,7 C 1,4 C 0,0 km/h
30.10.2012 04:00 1,5 C 85 % 1008,1 hPa 0,0 l/m 0,0 km/h S -0,7 C 1,5 C 0,0 km/h
30.10.2012 05:00 1,4 C 85 % 1008,0 hPa 0,0 l/m 0,0 km/h N -0,8 C 1,4 C 0,0 km/h
30.10.2012 06:00 1,4 C 85 % 1007,8 hPa 0,0 l/m 0,0 km/h O-SO -0,8 C 1,4 C 0,0 km/h
30.10.2012 07:00 1,3 C 85 % 1007,9 hPa 0,0 l/m 0,0 km/h SO -0,9 C 1,3 C 0,0 km/h
30.10.2012 08:00 1,7 C 85 % 1008,1 hPa 0,0 l/m 0,0 km/h O -0,5 C 1,7 C 0,0 km/h
30.10.2012 09:00 9,8 C 74 % 1008,0 hPa 0,0 l/m 0,0 km/h SO 5,4 C 9,8 C 0,0 km/h
30.10.2012 10:00 13,6 C 53 % 1007,6 hPa 0,0 l/m 0,0 km/h NW 4,2 C 13,6 C 0,0 km/h
30.10.2012 11:00 14,6 C 47 % 1007,3 hPa 0,0 l/m 0,0 km/h W-SW 3,4 C 14,6 C 0,0 km/h
30.10.2012 12:00 12,3 C 52 % 1006,4 hPa 0,0 l/m 1,9 km/h W 2,7 C 12,3 C 1,1 km/h
30.10.2012 13:00 12,6 C 52 % 1005,7 hPa 0,0 l/m 16,2 km/h W-NW 3,0 C 7,9 C 9,0 km/h
30.10.2012 14:00 14,2 C 46 % 1005,2 hPa 0,0 l/m 18,8 km/h W-SW 2,8 C 9,0 C 10,4 km/h
30.10.2012 15:00 14,8 C 42 % 1005,0 hPa 0,0 l/m 5,2 km/h W 2,0 C 14,8 C 2,9 km/h
30.10.2012 16:00 13,6 C 43 % 1004,6 hPa 0,0 l/m 0,0 km/h O-SO 1,3 C 13,6 C 0,0 km/h
30.10.2012 17:00 5,9 C 64 % 1004,5 hPa 0,0 l/m 0,0 km/h SO -0,4 C 5,9 C 0,0 km/h
30.10.2012 18:00 2,9 C 77 % 1004,7 hPa 0,0 l/m 0,0 km/h S-SO -0,7 C 2,9 C 0,0 km/h
30.10.2012 19:00 2,3 C 83 % 1005,2 hPa 0,0 l/m 0,0 km/h S-SO -0,3 C 2,3 C 0,0 km/h
30.10.2012 20:00 1,6 C 84 % 1004,9 hPa 0,0 l/m 3,9 km/h SO -0,8 C 1,6 C 2,2 km/h
30.10.2012 21:00 0,9 C 85 % 1004,9 hPa 0,0 l/m 1,9 km/h S-SO -1,3 C 0,9 C 1,1 km/h
30.10.2012 22:00 0,5 C 85 % 1004,4 hPa 0,0 l/m 3,2 km/h SO -1,7 C 0,5 C 1,8 km/h
30.10.2012 23:00 0,3 C 85 % 1004,1 hPa 0,0 l/m 3,9 km/h S-SO -1,9 C 0,3 C 2,2 km/h
31.10.2012 00:00 0,3 C 85 % 1004,0 hPa 0,0 l/m 0,0 km/h NO -1,9 C 0,3 C 0,0 km/h
31.10.2012 01:00 -0,3 C 85 % 1003,8 hPa 0,0 l/m 0,0 km/h S-SO -2,5 C -0,3 C 0,0 km/h
31.10.2012 02:00 -1,2 C 85 % 1003,4 hPa 0,0 l/m 0,0 km/h S-SO -3,4 C -1,2 C 0,0 km/h
31.10.2012 03:00 -1,6 C 85 % 1002,7 hPa 0,0 l/m 0,0 km/h SO -3,8 C -1,6 C 0,0 km/h
31.10.2012 04:00 -2,1 C 85 % 1002,9 hPa 0,0 l/m 0,0 km/h O-NO -4,3 C -2,1 C 0,0 km/h
31.10.2012 05:00 -2,4 C 84 % 1002,0 hPa 0,0 l/m 0,0 km/h SO -4,7 C -2,4 C 0,0 km/h
31.10.2012 06:00 -2,4 C 84 % 1001,7 hPa 0,0 l/m 0,0 km/h O-SO -4,7 C -2,4 C 0,0 km/h
31.10.2012 07:00 -3,1 C 84 % 1001,5 hPa 0,0 l/m 0,0 km/h O-NO -5,4 C -3,1 C 0,0 km/h
31.10.2012 08:00 -0,4 C 81 % 1001,7 hPa 0,0 l/m 0,0 km/h S-SW -3,3 C -0,4 C 0,0 km/h
31.10.2012 09:00 7,6 C 84 % 1001,4 hPa 0,0 l/m 0,0 km/h N 5,1 C 7,6 C 0,0 km/h
31.10.2012 10:00 12,6 C 64 % 1000,9 hPa 0,0 l/m 0,0 km/h N-NW 6,0 C 12,6 C 0,0 km/h
31.10.2012 11:00 14,5 C 57 % 1000,4 hPa 0,0 l/m 0,0 km/h N-NW 6,1 C 14,5 C 0,0 km/h
31.10.2012 12:00 14,6 C 57 % 999,5 hPa 0,0 l/m 0,0 km/h SW 6,2 C 14,6 C 0,0 km/h
31.10.2012 13:00 14,4 C 56 % 998,7 hPa 0,0 l/m 0,0 km/h W 5,7 C 14,4 C 0,0 km/h
31.10.2012 14:00 13,5 C 59 % 997,7 hPa 0,0 l/m 0,0 km/h W 5,6 C 13,5 C 0,0 km/h
31.10.2012 15:00 13,4 C 60 % 997,1 hPa 0,0 l/m 0,0 km/h W 5,8 C 13,4 C 0,0 km/h
31.10.2012 16:00 11,1 C 63 % 996,4 hPa 0,0 l/m 0,0 km/h W-SW 4,3 C 11,1 C 0,0 km/h
31.10.2012 17:00 6,4 C 75 % 995,9 hPa 0,0 l/m 0,0 km/h W-SW 2,3 C 6,4 C 0,0 km/h
31.10.2012 18:00 4,4 C 81 % 995,6 hPa 0,0 l/m 0,0 km/h S-SO 1,4 C 4,4 C 0,0 km/h
31.10.2012 19:00 4,3 C 84 % 994,9 hPa 0,0 l/m 0,0 km/h SO 1,8 C 4,3 C 0,0 km/h
31.10.2012 20:00 4,1 C 85 % 994,5 hPa 0,0 l/m 0,0 km/h SO 1,8 C 4,1 C 0,0 km/h
31.10.2012 21:00 4,4 C 85 % 994,1 hPa 0,0 l/m 0,0 km/h SO 2,1 C 4,4 C 0,0 km/h
31.10.2012 22:00 4,7 C 84 % 993,6 hPa 0,0 l/m 0,0 km/h SO 2,2 C 4,7 C 0,0 km/h
31.10.2012 23:00 4,7 C 84 % 993,3 hPa 0,0 l/m 0,0 km/h SO 2,2 C 4,7 C 0,0 km/h
01.11.2012 00:00 5,0 C 84 % 992,2 hPa 0,0 l/m 0,0 km/h O-SO 2,5 C 5,0 C 0,0 km/h
01.11.2012 01:00 5,0 C 85 % 991,0 hPa 0,0 l/m 0,0 km/h N-NO 2,7 C 5,0 C 0,0 km/h
01.11.2012 02:00 5,4 C 85 % 991,2 hPa 0,0 l/m 0,0 km/h N 3,1 C 5,4 C 0,0 km/h
01.11.2012 03:00 4,8 C 85 % 990,5 hPa 0,0 l/m 0,0 km/h O-SO 2,5 C 4,8 C 0,0 km/h
01.11.2012 04:00 4,7 C 85 % 990,1 hPa 0,0 l/m 0,0 km/h O 2,4 C 4,7 C 0,0 km/h
01.11.2012 05:00 3,9 C 85 % 989,9 hPa 0,0 l/m 0,0 km/h O-SO 1,6 C 3,9 C 0,0 km/h
01.11.2012 06:00 4,3 C 84 % 990,1 hPa 0,0 l/m 0,0 km/h W 1,8 C 4,3 C 0,0 km/h
01.11.2012 07:00 4,4 C 83 % 990,3 hPa 0,0 l/m 0,0 km/h SO 1,8 C 4,4 C 0,0 km/h
01.11.2012 08:00 5,8 C 83 % 990,1 hPa 0,0 l/m 0,0 km/h O 3,1 C 5,8 C 0,0 km/h
01.11.2012 09:00 8,2 C 85 % 990,0 hPa 0,0 l/m 0,0 km/h SO 5,8 C 8,2 C 0,0 km/h
01.11.2012 10:00 15,6 C 71 % 989,6 hPa 0,0 l/m 0,0 km/h W-SW 10,4 C 15,6 C 0,0 km/h
01.11.2012 11:00 16,5 C 52 % 989,4 hPa 0,0 l/m 13,0 km/h W 6,6 C 13,6 C 7,2 km/h
01.11.2012 12:00 16,3 C 50 % 988,6 hPa 0,0 l/m 21,4 km/h W-SW 5,9 C 11,1 C 11,9 km/h
01.11.2012 13:00 16,8 C 46 % 988,2 hPa 0,0 l/m 37,6 km/h S 5,1 C 9,2 C 20,9 km/h
01.11.2012 14:00 15,8 C 48 % 988,3 hPa 0,0 l/m 22,7 km/h SW 4,8 C 10,2 C 12,6 km/h
01.11.2012 15:00 11,9 C 64 % 989,9 hPa 0,0 l/m 31,8 km/h W 5,3 C 3,0 C 17,6 km/h
01.11.2012 16:00 11,5 C 69 % 990,0 hPa 0,0 l/m 1,3 km/h W 6,0 C 11,5 C 0,7 km/h
01.11.2012 17:00 12,2 C 62 % 990,2 hPa 0,0 l/m 9,7 km/h W 5,1 C 10,2 C 5,4 km/h
01.11.2012 18:00 12,5 C 60 % 991,0 hPa 0,0 l/m 23,3 km/h S-SW 5,0 C 5,6 C 13,0 km/h
01.11.2012 19:00 9,9 C 75 % 991,9 hPa 0,0 l/m 16,8 km/h S-SW 5,7 C 4,3 C 9,4 km/h
01.11.2012 20:00 9,1 C 82 % 992,6 hPa 0,0 l/m 12,3 km/h W-SW 6,2 C 5,3 C 6,8 km/h
01.11.2012 21:00 8,5 C 83 % 993,7 hPa 0,4 l/m 12,3 km/h SW 5,8 C 4,6 C 6,8 km/h
01.11.2012 22:00 7,8 C 84 % 995,0 hPa 0,4 l/m 22,7 km/h W-SW 5,3 C -0,5 C 12,6 km/h
01.11.2012 23:00 7,9 C 81 % 996,0 hPa 0,0 l/m 15,6 km/h W 4,8 C 2,3 C 8,6 km/h
02.11.2012 00:00 7,6 C 80 % 996,9 hPa 0,0 l/m 23,3 km/h W-SW 4,4 C -0,9 C 13,0 km/h
02.11.2012 01:00 7,6 C 80 % 998,0 hPa 0,0 l/m 24,0 km/h S-SW 4,4 C -1,1 C 13,3 km/h
02.11.2012 02:00 7,2 C 80 % 999,1 hPa 0,0 l/m 11,7 km/h SW 4,0 C 3,5 C 6,5 km/h
02.11.2012 03:00 7,5 C 78 % 999,8 hPa 0,0 l/m 29,2 km/h SW 3,9 C -2,7 C 16,2 km/h
02.11.2012 04:00 7,4 C 78 % 1000,2 hPa 0,0 l/m 16,2 km/h S-SW 3,8 C 1,4 C 9,0 km/h
02.11.2012 05:00 7,5 C 77 % 1000,9 hPa 0,0 l/m 21,4 km/h W 3,7 C -0,4 C 11,9 km/h
02.11.2012 06:00 7,6 C 75 % 1001,0 hPa 0,0 l/m 7,8 km/h S-SW 3,5 C 6,5 C 4,3 km/h
02.11.2012 07:00 7,9 C 75 % 1001,4 hPa 0,0 l/m 1,3 km/h SW 3,7 C 7,9 C 0,7 km/h
02.11.2012 08:00 8,2 C 75 % 1002,6 hPa 0,0 l/m 23,3 km/h W 4,0 C -0,1 C 13,0 km/h
02.11.2012 09:00 9,1 C 74 % 1003,1 hPa 0,0 l/m 3,9 km/h W-SW 4,7 C 9,1 C 2,2 km/h
02.11.2012 10:00 9,6 C 71 % 1003,5 hPa 0,0 l/m 16,2 km/h S-SW 4,6 C 4,2 C 9,0 km/h
02.11.2012 11:00 11,1 C 71 % 1003,1 hPa 0,0 l/m 4,5 km/h S-SO 6,0 C 11,1 C 2,5 km/h
02.11.2012 12:00 11,5 C 70 % 1002,1 hPa 0,0 l/m 12,3 km/h W-SW 6,2 C 8,1 C 6,8 km/h
02.11.2012 13:00 15,1 C 55 % 1001,4 hPa 0,0 l/m 31,8 km/h W-SW 6,1 C 7,5 C 17,6 km/h
02.11.2012 14:00 12,3 C 60 % 1000,7 hPa 0,0 l/m 0,0 km/h O-SO 4,8 C 12,3 C 0,0 km/h
02.11.2012 15:00 12,0 C 66 % 999,9 hPa 0,0 l/m 0,0 km/h SO 5,8 C 12,0 C 0,0 km/h
02.11.2012 16:00 9,5 C 79 % 999,5 hPa 0,4 l/m 2,6 km/h SO 6,0 C 9,5 C 1,4 km/h
02.11.2012 17:00 8,6 C 83 % 999,6 hPa 0,4 l/m 0,0 km/h SW 5,9 C 8,6 C 0,0 km/h
02.11.2012 18:00 9,0 C 84 % 1000,6 hPa 0,0 l/m 1,9 km/h W 6,4 C 9,0 C 1,1 km/h
02.11.2012 19:00 9,9 C 84 % 1001,3 hPa 0,0 l/m 24,0 km/h SW 7,3 C 2,0 C 13,3 km/h
02.11.2012 20:00 11,2 C 78 % 1001,5 hPa 0,0 l/m 22,7 km/h W-SW 7,5 C 4,1 C 12,6 km/h
02.11.2012 21:00 11,6 C 75 % 1002,5 hPa 0,0 l/m 5,8 km/h SW 7,3 C 11,6 C 3,2 km/h
02.11.2012 22:00 11,6 C 76 % 1002,5 hPa 0,0 l/m 16,8 km/h W-NW 7,5 C 6,4 C 9,4 km/h
02.11.2012 23:00 11,3 C 80 % 1003,3 hPa 0,0 l/m 26,6 km/h W-SW 8,0 C 3,2 C 14,8 km/h
03.11.2012 00:00 11,0 C 81 % 1003,6 hPa 0,0 l/m 22,0 km/h W-SW 7,9 C 4,0 C 12,2 km/h
03.11.2012 01:00 9,8 C 84 % 1003,7 hPa 0,7 l/m 13,6 km/h SW 7,2 C 5,5 C 7,6 km/h
03.11.2012 02:00 9,3 C 83 % 1004,2 hPa 1,4 l/m 3,9 km/h W-NW 6,6 C 9,3 C 2,2 km/h
03.11.2012 03:00 9,0 C 81 % 1003,9 hPa 1,4 l/m 0,0 km/h O-SO 5,9 C 9,0 C 0,0 km/h
03.11.2012 04:00 8,8 C 80 % 1003,1 hPa 0,4 l/m 0,0 km/h O-NO 5,5 C 8,8 C 0,0 km/h
03.11.2012 05:00 8,9 C 77 % 1002,6 hPa 0,0 l/m 0,0 km/h N-NO 5,1 C 8,9 C 0,0 km/h
03.11.2012 06:00 9,1 C 76 % 1002,1 hPa 0,0 l/m 0,0 km/h O 5,1 C 9,1 C 0,0 km/h
03.11.2012 07:00 9,1 C 75 % 1003,0 hPa 0,4 l/m 0,0 km/h O 4,9 C 9,1 C 0,0 km/h
03.11.2012 08:00 9,8 C 74 % 1003,0 hPa 0,0 l/m 0,0 km/h O-NO 5,4 C 9,8 C 0,0 km/h
03.11.2012 09:00 10,9 C 74 % 1002,9 hPa 0,0 l/m 0,0 km/h NO 6,5 C 10,9 C 0,0 km/h
03.11.2012 10:00 14,4 C 84 % 1002,3 hPa 0,0 l/m 0,6 km/h W 11,7 C 14,4 C 0,4 km/h
03.11.2012 11:00 18,4 C 58 % 1002,0 hPa 0,0 l/m 20,1 km/h W 10,0 C 14,1 C 11,2 km/h
03.11.2012 12:00 19,2 C 52 % 1001,2 hPa 0,0 l/m 24,0 km/h W-SW 9,1 C 14,5 C 13,3 km/h
03.11.2012 13:00 20,2 C 43 % 1000,8 hPa 0,0 l/m 40,2 km/h W 7,2 C 14,0 C 22,3 km/h
03.11.2012 14:00 17,5 C 48 % 1000,7 hPa 0,0 l/m 33,0 km/h W 6,4 C 10,8 C 18,4 km/h
03.11.2012 15:00 17,3 C 51 % 1001,2 hPa 0,0 l/m 14,3 km/h W 7,1 C 14,2 C 7,9 km/h
03.11.2012 16:00 16,9 C 53 % 1001,5 hPa 0,0 l/m 11,7 km/h SW 7,3 C 14,6 C 6,5 km/h
03.11.2012 17:00 16,2 C 57 % 1001,7 hPa 0,0 l/m 11,0 km/h W 7,7 C 14,0 C 6,1 km/h
03.11.2012 18:00 15,6 C 60 % 1001,7 hPa 0,0 l/m 11,7 km/h S-SW 7,9 C 13,1 C 6,5 km/h
03.11.2012 19:00 14,9 C 62 % 1001,8 hPa 0,0 l/m 0,6 km/h NW 7,7 C 14,9 C 0,4 km/h
03.11.2012 20:00 15,3 C 61 % 1001,8 hPa 0,0 l/m 0,0 km/h N 7,8 C 15,3 C 0,0 km/h
03.11.2012 21:00 11,3 C 75 % 1003,1 hPa 0,0 l/m 9,1 km/h O-SO 7,0 C 9,5 C 5,0 km/h
03.11.2012 22:00 10,6 C 78 % 1002,3 hPa 0,0 l/m 0,0 km/h S-SO 6,9 C 10,6 C 0,0 km/h
03.11.2012 23:00 9,8 C 82 % 1002,4 hPa 0,0 l/m 3,9 km/h N 6,9 C 9,8 C 2,2 km/h
04.11.2012 00:00 9,6 C 83 % 1003,7 hPa 0,0 l/m 0,0 km/h SO 6,9 C 9,6 C 0,0 km/h
04.11.2012 01:00 8,9 C 84 % 1003,4 hPa 1,8 l/m 7,1 km/h NO 6,3 C 8,4 C 4,0 km/h
04.11.2012 02:00 8,7 C 83 % 1004,2 hPa 1,1 l/m 11,0 km/h NO 6,0 C 5,6 C 6,1 km/h
04.11.2012 03:00 7,9 C 84 % 1004,4 hPa 0,7 l/m 0,0 km/h O 5,4 C 7,9 C 0,0 km/h
04.11.2012 04:00 7,8 C 83 % 1003,9 hPa 0,4 l/m 0,0 km/h N-NO 5,1 C 7,8 C 0,0 km/h
04.11.2012 05:00 7,8 C 83 % 1003,2 hPa 0,4 l/m 0,0 km/h N 5,1 C 7,8 C 0,0 km/h
04.11.2012 06:00 7,9 C 82 % 1003,2 hPa 0,0 l/m 0,0 km/h S 5,0 C 7,9 C 0,0 km/h
04.11.2012 07:00 7,9 C 81 % 1002,8 hPa 0,4 l/m 0,0 km/h S-SO 4,8 C 7,9 C 0,0 km/h
04.11.2012 08:00 8,2 C 80 % 1002,7 hPa 1,1 l/m 0,0 km/h S-SO 5,0 C 8,2 C 0,0 km/h
04.11.2012 09:00 9,0 C 78 % 1001,9 hPa 0,0 l/m 1,3 km/h N-NO 5,4 C 9,0 C 0,7 km/h
04.11.2012 10:00 10,7 C 82 % 1001,4 hPa 0,0 l/m 0,0 km/h N 7,8 C 10,7 C 0,0 km/h
04.11.2012 11:00 12,5 C 83 % 1000,2 hPa 0,0 l/m 0,0 km/h W-NW 9,7 C 12,5 C 0,0 km/h
04.11.2012 12:00 11,8 C 83 % 999,9 hPa 0,0 l/m 3,2 km/h W 9,0 C 11,8 C 1,8 km/h
04.11.2012 13:00 13,8 C 80 % 999,2 hPa 0,0 l/m 0,0 km/h O 10,4 C 13,8 C 0,0 km/h
04.11.2012 14:00 12,1 C 83 % 998,3 hPa 0,0 l/m 0,0 km/h W-NW 9,3 C 12,1 C 0,0 km/h
04.11.2012 15:00 10,9 C 84 % 998,9 hPa 1,1 l/m 0,0 km/h SW 8,3 C 10,9 C 0,0 km/h
04.11.2012 16:00 11,4 C 81 % 999,9 hPa 1,4 l/m 25,3 km/h S-SW 8,3 C 3,7 C 14,0 km/h
04.11.2012 17:00 10,4 C 82 % 999,9 hPa 1,4 l/m 14,3 km/h SW 7,5 C 5,9 C 7,9 km/h
04.11.2012 18:00 9,8 C 81 % 1000,7 hPa 1,1 l/m 7,8 km/h SW 6,7 C 8,8 C 4,3 km/h
04.11.2012 19:00 9,4 C 80 % 1000,2 hPa 0,7 l/m 0,0 km/h NO 6,1 C 9,4 C 0,0 km/h
04.11.2012 20:00 9,3 C 79 % 1001,1 hPa 1,4 l/m 0,0 km/h W-NW 5,8 C 9,3 C 0,0 km/h
04.11.2012 21:00 9,3 C 76 % 1000,8 hPa 1,1 l/m 2,6 km/h W 5,3 C 9,3 C 1,4 km/h
04.11.2012 22:00 9,2 C 73 % 1001,0 hPa 0,7 l/m 1,9 km/h SW 4,6 C 9,2 C 1,1 km/h
04.11.2012 23:00 8,4 C 77 % 1001,1 hPa 0,7 l/m 23,3 km/h S-SW 4,6 C 0,2 C 13,0 km/h
Min-Datum _ 29.10.12 30.10.12 01.11.12 - 29.10.12 - 29.10.12 29.10.12 29.10.12
_ Min-Zeit 07:19 15:19 13:19 - 00:19 - 07:19 07:19 00:19
Minimum _ -5,7 C 42 % 988,2 hPa - 0,0 km/h - -7,7 C -5,7 C 0,0 km/h
Max-Datum _ 03.11.12 29.10.12 29.10.12 04.11.12 03.11.12 - 03.11.12 01.11.12 03.11.12
_ Max-Zeit 13:19 05:19 09:19 01:19 13:19 - 10:19 10:19 13:19
Maximum _ 20,2 C 87 % 1015,9 hPa 1,8 l/m 40,2 km/h
W
- 11,7 C 15,6 C 22,3 km/h
W
Durchschnitt _ 7,8 C 75 % 1002,2 hPa #21,0 l/m 5,8 km/h S-SO 3,4 C 6,3 C 3,2 km/h
www.sexauwetter.de